CheckWX is a tool to help pilots better visualize weather data.  It is not intended as a substitute for an official pre-flight weather briefing.

22:04:09 UTC

KRDM TAF
Roberts Field Airport
Redmond, Oregon, USA
KRDM 201721Z 2018/2118 18010KT P6SM OVC010 FM201900 24012KT P6SM BKN090 OVC200 FM210000 34008KT P6SM VCSH OVC090 FM210400 VRB05KT P6SM -SHRA SCT040 OVC080 FM211300 VRB04KT P6SM -SHRA SCT030 BKN050

Mar-20@
18:00 UTC

Mar-20 @ 18:00 UTC

Mar-20@
19:00 UTC

Mar-20 @ 19:00 UTC

KRDM 201721Z 2018/2118 18010KT P6SM OVC010

Expired

Wind
  • 180° at 10 KTS
Cloud Levels
  • Overcast at 1,000' AGL

Mar-20@
19:00 UTC

Mar-20 @ 19:00 UTC

Mar-21@
00:00 UTC

Mar-21 @ 00:00 UTC

FM201900 24012KT P6SM BKN090 OVC200

From

From Standard forecast or significant change

Wind
  • 240° at 12 KTS
Cloud Levels
  • Broken at 9,000' AGL
  • Overcast at 20,000' AGL

Mar-21@
00:00 UTC

Mar-21 @ 00:00 UTC

Mar-21@
04:00 UTC

Mar-21 @ 04:00 UTC

FM210000 34008KT P6SM VCSH OVC090

From

From Standard forecast or significant change

Wind
  • 340° at 8 KTS
Cloud Levels
  • Overcast at 9,000' AGL

Mar-21@
04:00 UTC

Mar-21 @ 04:00 UTC

Mar-21@
13:00 UTC

Mar-21 @ 13:00 UTC

FM210400 VRB05KT P6SM -SHRA SCT040 OVC080

From

From Standard forecast or significant change

Wind
  • Variable at 5 KTS
Conditions
Light Rain
Cloud Levels
  • Scattered at 4,000' AGL
  • Overcast at 8,000' AGL

Mar-21@
13:00 UTC

Mar-21 @ 13:00 UTC

Mar-21@
18:00 UTC

Mar-21 @ 18:00 UTC

FM211300 VRB04KT P6SM -SHRA SCT030 BKN050

From

From Standard forecast or significant change

Wind
  • Variable at 4 KTS
Conditions
Light Rain
Cloud Levels
  • Scattered at 3,000' AGL
  • Broken at 5,000' AGL